Time;durP1;ratioP1;P1;durP2;ratioP2;P2;SDS_P1;SDS_P2;PMS_P1;PMS_P2;Temp;Humidity;BMP_temperature;BMP_pressure;BME280_temperature;BME280_humidity;BME280_pressure;Samples;Min_cycle;Max_cycle;Signal;HPM_P1;HPM_P2
2023/10/05 00:02:24;;;;;;;0.25;0.10;;;;;;;13.07;60.37;100940.19;4463316;32;32748;-80
2023/10/05 00:04:45;;;;;;;0.00;0.00;;;;;;;13.11;60.13;100935.63;4472277;32;32768;-80
2023/10/05 00:07:19;;;;;;;0.20;0.20;;;;;;;12.92;60.91;100935.41;4450402;32;34163;-80
2023/10/05 00:09:49;;;;;;;5.80;1.35;;;;;;;12.95;60.66;100948.53;4477079;32;34562;-80
2023/10/05 00:12:23;;;;;;;0.10;0.10;;;;;;;13.39;58.71;100951.44;4461719;32;33186;-80
2023/10/05 00:17:38;;;;;;;0.10;0.10;;;;;;;12.76;61.36;100945.66;4475513;32;34314;-80
2023/10/05 00:20:14;;;;;;;1.90;0.30;;;;;;;12.82;61.22;100955.22;4472448;32;35019;-81
2023/10/05 00:22:42;;;;;;;0.37;0.37;;;;;;;12.91;61.03;100956.66;4462500;32;32805;-80
2023/10/05 00:25:11;;;;;;;0.37;0.37;;;;;;;12.86;61.22;100943.56;4460500;32;33495;-80
2023/10/05 00:27:39;;;;;;;0.00;0.00;;;;;;;13.00;60.91;100957.19;4457644;32;33673;-80
2023/10/05 00:30:07;;;;;;;1.98;0.52;;;;;;;13.14;60.46;100951.41;4462540;32;34616;-80
2023/10/05 00:32:39;;;;;;;0.47;0.45;;;;;;;13.08;60.57;100949.84;4460742;32;32469;-80
2023/10/05 00:35:32;;;;;;;0.35;0.15;;;;;;;13.06;61.22;100950.84;4475320;32;34302;-79
2023/10/05 00:38:09;;;;;;;0.05;0.05;;;;;;;13.13;61.05;100948.81;4463361;32;33384;-79
2023/10/05 00:40:39;;;;;;;0.93;0.15;;;;;;;13.02;61.54;100936.81;4476761;32;33575;-79
2023/10/05 00:43:12;;;;;;;0.15;0.15;;;;;;;13.20;61.14;100937.09;4461500;32;34211;-79
2023/10/05 00:45:46;;;;;;;0.10;0.00;;;;;;;13.33;60.95;100941.03;4471268;32;33352;-83
2023/10/05 00:48:27;;;;;;;0.30;0.30;;;;;;;13.28;60.96;100933.25;4460534;32;33415;-79
2023/10/05 00:50:59;;;;;;;0.40;0.35;;;;;;;13.13;61.72;100940.88;4473139;32;33927;-79
2023/10/05 00:53:28;;;;;;;;;;;;;;;13.19;61.75;100938.00;4461298;32;33419;-78
2023/10/05 00:56:15;;;;;;;0.00;0.00;;;;;;;13.20;61.90;100939.75;4461783;32;32901;-78
2023/10/05 00:58:48;;;;;;;2.40;0.35;;;;;;;13.14;62.10;100930.19;4464086;32;34067;-78
2023/10/05 01:01:16;;;;;;;0.20;0.08;;;;;;;13.14;62.75;100934.63;4475016;32;33998;-79
2023/10/05 01:04:34;;;;;;;0.20;0.08;;;;;;;13.23;62.05;100932.56;4461294;32;33923;-79
2023/10/05 01:06:42;;;;;;;0.00;0.00;;;;;;;13.18;61.47;100936.25;4462664;32;33173;-80
2023/10/05 01:09:56;;;;;;;0.50;0.50;;;;;;;13.19;61.34;100932.69;4477461;32;33374;-80
2023/10/05 01:14:40;;;;;;;0.00;0.00;;;;;;;13.32;60.72;100918.94;4474347;32;32639;-80
2023/10/05 01:17:08;;;;;;;0.50;0.50;;;;;;;13.53;60.00;100922.59;4477135;32;32685;-80
2023/10/05 01:19:38;;;;;;;0.32;0.32;;;;;;;13.24;60.60;100922.81;4475347;32;34023;-80
2023/10/05 01:22:12;;;;;;;1.23;0.52;;;;;;;13.18;60.97;100928.31;4481038;32;33898;-80
2023/10/05 01:24:41;;;;;;;0.25;0.25;;;;;;;13.14;61.07;100913.44;4462815;32;33353;-80
2023/10/05 01:27:10;;;;;;;0.20;0.20;;;;;;;13.11;61.62;100918.84;4463645;32;32711;-80
2023/10/05 01:29:39;;;;;;;1.98;0.25;;;;;;;12.99;62.37;100909.53;4463623;32;34455;-80
2023/10/05 01:32:07;;;;;;;0.45;0.20;;;;;;;13.02;62.19;100922.72;4467939;32;34185;-80
2023/10/05 01:34:35;;;;;;;0.40;0.40;;;;;;;13.04;61.99;100908.44;4477520;32;32989;-80
2023/10/05 01:37:03;;;;;;;0.20;0.20;;;;;;;13.07;61.74;100913.66;4465488;32;33386;-80
2023/10/05 01:39:35;;;;;;;0.15;0.15;;;;;;;13.02;61.88;100912.09;4463741;32;33540;-80
2023/10/05 01:42:06;;;;;;;;;;;;;;;12.97;61.90;100906.97;4467759;32;33947;-80
2023/10/05 01:44:36;;;;;;;0.47;0.47;;;;;;;13.10;61.45;100902.06;4475896;32;32974;-80
2023/10/05 01:47:07;;;;;;;2.08;0.37;;;;;;;13.10;61.49;100906.50;4462025;32;33936;-80
2023/10/05 01:49:35;;;;;;;0.20;0.20;;;;;;;13.07;61.66;100902.19;4476543;32;34488;-79
2023/10/05 01:52:03;;;;;;;5.80;0.50;;;;;;;12.79;62.10;100897.87;4478484;32;34628;-78
2023/10/05 01:54:32;;;;;;;0.00;0.00;;;;;;;12.84;62.40;100897.72;4475213;32;33378;-79
2023/10/05 01:57:12;;;;;;;0.00;0.00;;;;;;;12.91;61.75;100899.22;4473073;32;34732;-79
2023/10/05 01:59:40;;;;;;;0.32;0.32;;;;;;;12.96;61.68;100902.59;4472609;32;33897;-79
2023/10/05 02:02:10;;;;;;;0.00;0.00;;;;;;;12.87;61.91;100905.56;4463419;32;33692;-79
2023/10/05 02:04:40;;;;;;;0.52;0.52;;;;;;;12.85;61.85;100899.44;4452139;32;32351;-79
2023/10/05 02:07:09;;;;;;;0.15;0.15;;;;;;;12.89;61.99;100895.75;4475677;32;33493;-79
2023/10/05 02:09:38;;;;;;;0.45;0.32;;;;;;;12.75;61.88;100896.25;4463636;32;32527;-79
2023/10/05 02:12:07;;;;;;;0.15;0.15;;;;;;;12.83;61.78;100890.69;4465986;32;34506;-78
2023/10/05 02:14:41;;;;;;;0.30;0.30;;;;;;;12.99;61.13;100889.19;4472712;32;33137;-78
2023/10/05 02:17:10;;;;;;;7.62;0.47;;;;;;;13.03;60.75;100890.81;4477028;32;34460;-79
2023/10/05 02:19:41;;;;;;;0.08;0.08;;;;;;;12.85;61.27;100888.81;4476141;32;33991;-79
2023/10/05 02:22:11;;;;;;;0.20;0.20;;;;;;;12.94;61.61;100885.84;4466649;32;32904;-79
2023/10/05 02:24:40;;;;;;;0.00;0.00;;;;;;;12.97;61.34;100890.19;4467198;32;33476;-79
2023/10/05 02:27:09;;;;;;;0.00;0.00;;;;;;;12.83;62.10;100877.44;4476010;32;33535;-80
2023/10/05 02:29:40;;;;;;;0.10;0.10;;;;;;;12.91;61.59;100864.75;4463248;32;33837;-79
2023/10/05 02:32:11;;;;;;;0.52;0.52;;;;;;;12.90;61.58;100867.47;4473459;32;34429;-79
2023/10/05 02:37:10;;;;;;;0.10;0.10;;;;;;;12.76;62.86;100868.81;4472979;32;32112;-79
2023/10/05 02:39:40;;;;;;;1.77;0.62;;;;;;;13.03;61.67;100863.44;4460532;32;34082;-79
2023/10/05 02:42:21;;;;;;;0.10;0.00;;;;;;;12.78;61.55;100872.28;4478649;32;33436;-79
2023/10/05 02:44:53;;;;;;;0.35;0.35;;;;;;;12.47;62.67;100864.53;4450975;32;32455;-79
2023/10/05 02:47:24;;;;;;;0.52;0.52;;;;;;;12.66;62.00;100866.56;4475457;32;34576;-80
2023/10/05 02:49:52;;;;;;;0.03;0.03;;;;;;;12.76;61.89;100871.47;4473868;32;34676;-79
2023/10/05 02:52:20;;;;;;;0.00;0.00;;;;;;;12.79;61.82;100868.72;4446884;32;33229;-79
2023/10/05 02:54:48;;;;;;;0.00;0.00;;;;;;;12.79;61.59;100868.72;4465014;32;32954;-79
2023/10/05 02:57:16;;;;;;;0.00;0.00;;;;;;;12.69;61.44;100872.62;4458170;32;33825;-79
2023/10/05 02:59:46;;;;;;;0.28;0.28;;;;;;;12.49;62.26;100875.97;4476610;32;33590;-79
2023/10/05 03:02:17;;;;;;;0.43;0.43;;;;;;;12.66;61.75;100879.81;4460919;32;34419;-79
2023/10/05 03:04:47;;;;;;;0.55;0.47;;;;;;;12.74;61.51;100881.28;4461968;32;33831;-79
2023/10/05 03:07:17;;;;;;;0.10;0.10;;;;;;;12.68;61.51;100877.97;4461355;32;33959;-80
2023/10/05 03:09:47;;;;;;;0.00;0.00;;;;;;;12.81;61.27;100877.47;4456826;32;33601;-79
2023/10/05 03:12:20;;;;;;;0.00;0.00;;;;;;;12.68;61.97;100877.97;4453953;32;34308;-79
2023/10/05 03:14:54;;;;;;;0.28;0.28;;;;;;;12.66;62.10;100874.50;4474409;32;33329;-79
2023/10/05 03:17:26;;;;;;;0.30;0.30;;;;;;;12.65;62.42;100878.09;4474509;32;33811;-79
2023/10/05 03:19:55;;;;;;;0.05;0.05;;;;;;;12.75;61.73;100874.19;4462182;32;33089;-79
2023/10/05 03:22:23;;;;;;;0.10;0.10;;;;;;;12.60;62.66;100874.72;4464154;32;33164;-80
2023/10/05 03:24:53;;;;;;;0.65;0.65;;;;;;;12.73;61.84;100876.03;4475718;32;33294;-81
2023/10/05 03:27:22;;;;;;;0.30;0.30;;;;;;;12.76;61.60;100875.91;4475444;32;33544;-80
2023/10/05 03:29:52;;;;;;;0.70;0.70;;;;;;;12.71;61.27;100873.41;4450408;32;34153;-79
2023/10/05 03:32:20;;;;;;;0.03;0.03;;;;;;;12.70;61.12;100876.12;4471508;32;33605;-80
2023/10/05 03:34:58;;;;;;;2.35;0.88;;;;;;;12.59;61.88;100883.59;4461427;32;32457;-79
2023/10/05 03:37:29;;;;;;;0.52;0.32;;;;;;;12.50;61.93;100884.78;4472804;32;33520;-79
2023/10/05 03:42:32;;;;;;;0.05;0.05;;;;;;;12.36;62.30;100887.03;4462633;32;32704;-79
2023/10/05 03:45:03;;;;;;;6.60;0.90;;;;;;;12.37;62.39;100894.06;4478505;32;33436;-80
2023/10/05 03:47:37;;;;;;;;;;;;;;;12.68;60.95;100901.84;4477787;32;35419;-79
2023/10/05 03:50:06;;;;;;;;;;;;;;;12.55;61.20;100904.03;4461298;32;34013;-80
2023/10/05 03:52:34;;;;;;;1.10;0.55;;;;;;;12.39;61.69;100905.44;4464167;32;35252;-79
2023/10/05 03:55:10;;;;;;;0.47;0.35;;;;;;;12.33;61.85;100897.72;4459002;32;32729;-79
2023/10/05 03:57:41;;;;;;;4.00;1.00;;;;;;;12.37;61.57;100878.16;4448375;32;32641;-79
2023/10/05 04:02:58;;;;;;;0.03;0.00;;;;;;;12.48;61.47;100871.56;4472487;32;34630;-80
2023/10/05 04:05:26;;;;;;;0.00;0.00;;;;;;;12.44;61.46;100863.81;4458610;32;32222;-79
2023/10/05 04:08:00;;;;;;;0.20;0.20;;;;;;;12.45;61.45;100877.00;4476349;32;33578;-80
2023/10/05 04:10:46;;;;;;;0.98;0.88;;;;;;;12.31;62.11;100879.25;4462057;32;33335;-80
2023/10/05 04:13:16;;;;;;;0.00;0.00;;;;;;;12.34;62.54;100884.41;4474425;32;34449;-80
2023/10/05 04:15:44;;;;;;;0.10;0.10;;;;;;;12.41;62.28;100885.09;4474979;32;32515;-79
2023/10/05 04:18:14;;;;;;;0.32;0.32;;;;;;;12.45;61.73;100879.62;4463472;32;33296;-80
2023/10/05 04:20:43;;;;;;;0.00;0.00;;;;;;;12.37;61.98;100886.97;4447638;32;33450;-79
2023/10/05 04:23:16;;;;;;;0.60;0.60;;;;;;;12.26;62.52;100891.78;4464315;32;32801;-80
2023/10/05 04:25:54;;;;;;;0.20;0.20;;;;;;;12.60;61.16;100901.22;4458981;32;34068;-79
2023/10/05 04:28:35;;;;;;;0.47;0.47;;;;;;;12.32;61.70;100896.84;4471160;32;33847;-80
2023/10/05 04:31:11;;;;;;;0.08;0.08;;;;;;;12.37;61.74;100888.75;4464383;32;33936;-81
2023/10/05 04:33:42;;;;;;;0.45;0.20;;;;;;;12.38;61.35;100893.12;4472172;32;33203;-79
2023/10/05 04:36:10;;;;;;;0.00;0.00;;;;;;;12.41;61.59;100898.34;4462200;32;32872;-80
2023/10/05 04:38:38;;;;;;;0.08;0.08;;;;;;;12.46;61.28;100899.03;4458844;32;32840;-79
2023/10/05 04:41:06;;;;;;;0.40;0.40;;;;;;;12.35;61.10;100891.47;4458755;32;33063;-80
2023/10/05 04:43:34;;;;;;;0.00;0.00;;;;;;;12.17;62.07;100900.00;4458033;32;33258;-80
2023/10/05 04:46:05;;;;;;;0.00;0.00;;;;;;;12.08;62.44;100905.59;4459766;32;32536;-80
2023/10/05 04:48:33;;;;;;;0.10;0.10;;;;;;;12.22;61.54;100906.88;4458366;32;33449;-80
2023/10/05 04:51:01;;;;;;;0.15;0.15;;;;;;;12.43;60.52;100915.88;4459322;32;33400;-79
2023/10/05 04:53:30;;;;;;;0.17;0.15;;;;;;;12.10;62.22;100911.69;4451322;32;32666;-79
2023/10/05 04:56:14;;;;;;;0.17;0.17;;;;;;;12.07;62.34;100912.69;4457495;32;33083;-79
2023/10/05 05:01:36;;;;;;;0.03;0.03;;;;;;;12.13;62.17;100912.47;4472752;32;34993;-79
2023/10/05 05:04:27;;;;;;;0.00;0.00;;;;;;;12.19;62.07;100922.00;4459272;32;33783;-79
2023/10/05 05:06:56;;;;;;;0.05;0.05;;;;;;;12.08;62.46;100913.56;4470848;32;33306;-79
2023/10/05 05:09:29;;;;;;;0.35;0.30;;;;;;;12.12;62.49;100915.19;4456295;32;33679;-80
2023/10/05 05:12:03;;;;;;;0.00;0.00;;;;;;;12.01;62.88;100918.16;4459062;32;32937;-78
2023/10/05 05:14:33;;;;;;;2.53;0.57;;;;;;;12.03;62.43;100917.22;4470226;32;33617;-78
2023/10/05 05:17:04;;;;;;;0.00;0.00;;;;;;;12.17;62.30;100922.06;4476070;32;34604;-78
2023/10/05 05:19:34;;;;;;;0.00;0.00;;;;;;;12.20;62.34;100926.38;4445702;32;32470;-79
2023/10/05 05:22:05;;;;;;;0.13;0.13;;;;;;;12.11;62.13;100932.00;4470603;32;33163;-78
2023/10/05 05:24:33;;;;;;;0.00;0.00;;;;;;;12.07;62.33;100930.34;4470629;32;34551;-79
2023/10/05 05:27:46;;;;;;;0.00;0.00;;;;;;;12.02;62.48;100931.38;4470168;32;32897;-79
2023/10/05 05:29:54;;;;;;;0.00;0.00;;;;;;;12.20;61.95;100924.63;4456543;32;32988;-79
2023/10/05 05:32:22;;;;;;;0.10;0.10;;;;;;;12.22;61.91;100928.06;4460966;32;32669;-80
2023/10/05 05:34:50;;;;;;;1.15;1.05;;;;;;;12.15;61.94;100925.66;4463857;32;33951;-79
2023/10/05 05:37:40;;;;;;;0.08;0.08;;;;;;;12.16;62.04;100933.56;4470081;32;34031;-80
2023/10/05 05:40:13;;;;;;;0.43;0.43;;;;;;;12.13;62.29;100948.69;4473770;32;34744;-80
2023/10/05 05:42:45;;;;;;;0.17;0.17;;;;;;;12.17;62.28;100945.03;4460308;32;34027;-80
2023/10/05 05:45:16;;;;;;;0.00;0.00;;;;;;;12.34;62.05;100940.03;4460566;32;32998;-79
2023/10/05 05:47:45;;;;;;;0.55;0.52;;;;;;;12.42;62.00;100935.34;4475764;32;32728;-80
2023/10/05 05:50:17;;;;;;;6.32;0.43;;;;;;;12.51;61.78;100935.06;4463804;32;33550;-80
2023/10/05 05:52:52;;;;;;;0.30;0.30;;;;;;;12.46;62.14;100921.09;4462841;32;34131;-80
2023/10/05 05:55:22;;;;;;;0.57;0.52;;;;;;;12.55;62.44;100926.09;4465105;32;34013;-80
2023/10/05 05:57:50;;;;;;;0.10;0.10;;;;;;;13.19;60.77;100930.91;4465706;32;33888;-80
2023/10/05 06:00:18;;;;;;;1.17;0.37;;;;;;;13.24;61.27;100928.97;4464584;32;32525;-80
2023/10/05 06:02:46;;;;;;;0.00;0.00;;;;;;;13.26;61.18;100934.25;4453752;32;33321;-80
2023/10/05 06:05:14;;;;;;;0.00;0.00;;;;;;;13.06;62.05;100922.53;4462848;32;33099;-80
2023/10/05 06:07:43;;;;;;;0.30;0.30;;;;;;;12.89;62.64;100919.63;4463327;32;32350;-80
2023/10/05 06:10:14;;;;;;;0.00;0.00;;;;;;;13.12;62.52;100923.25;4449951;32;32803;-80
2023/10/05 06:12:50;;;;;;;0.13;0.13;;;;;;;12.94;63.31;100924.75;4475732;32;33739;-80
2023/10/05 06:15:20;;;;;;;2.50;1.00;;;;;;;13.15;62.95;100931.06;4467523;32;33015;-80
2023/10/05 06:17:48;;;;;;;0.22;0.20;;;;;;;13.46;62.65;100915.78;4474637;32;33325;-80
2023/10/05 06:20:17;;;;;;;0.20;0.20;;;;;;;13.38;63.05;100907.25;4477393;32;34630;-80
2023/10/05 06:22:46;;;;;;;0.28;0.28;;;;;;;13.42;63.15;100906.19;4465314;32;34428;-80
2023/10/05 06:25:17;;;;;;;0.10;0.10;;;;;;;13.64;62.38;100903.59;4451372;32;32903;-80
2023/10/05 06:27:52;;;;;;;0.55;0.55;;;;;;;13.79;62.29;100907.44;4465636;32;32619;-80
2023/10/05 06:30:20;;;;;;;1.77;1.45;;;;;;;13.83;62.06;100906.41;4469437;32;33904;-80
2023/10/05 06:32:49;;;;;;;2.45;1.27;;;;;;;13.97;61.99;100904.06;4467644;32;33203;-80
2023/10/05 06:35:17;;;;;;;0.08;0.08;;;;;;;14.00;61.62;100901.25;4461142;32;34468;-80
2023/10/05 06:37:46;;;;;;;0.35;0.35;;;;;;;14.17;61.65;100902.38;4476889;32;34187;-80
2023/10/05 06:40:14;;;;;;;0.50;0.50;;;;;;;14.30;61.29;100903.62;4466938;32;33633;-81
2023/10/05 06:42:43;;;;;;;0.20;0.20;;;;;;;14.41;61.14;100904.03;4465221;32;34638;-80
2023/10/05 06:45:16;;;;;;;0.47;0.47;;;;;;;14.63;60.71;100900.50;4473106;32;33894;-81
2023/10/05 06:47:43;;;;;;;;;;;;;;;14.78;60.49;100902.50;4456808;32;32781;-80
2023/10/05 06:50:11;;;;;;;0.17;0.10;;;;;;;15.04;59.92;100902.19;4450438;32;33474;-80
2023/10/05 06:52:42;;;;;;;0.32;0.32;;;;;;;15.33;59.14;100892.03;4475119;32;33708;-80
2023/10/05 06:55:12;;;;;;;5.62;1.23;;;;;;;15.23;59.16;100906.69;4463230;32;32482;-80
2023/10/05 06:57:43;;;;;;;0.90;0.50;;;;;;;15.69;57.72;100899.28;4476595;32;33374;-80
2023/10/05 07:00:22;;;;;;;0.35;0.35;;;;;;;15.86;57.14;100891.34;4471723;32;32783;-80
2023/10/05 07:02:53;;;;;;;0.10;0.10;;;;;;;15.95;57.41;100888.25;4463224;32;33037;-80
2023/10/05 07:05:21;;;;;;;0.60;0.60;;;;;;;15.91;56.80;100896.47;4459527;32;33800;-80
2023/10/05 07:07:49;;;;;;;0.10;0.10;;;;;;;16.17;55.68;100898.69;4467438;32;32359;-80
2023/10/05 07:10:17;;;;;;;0.52;0.50;;;;;;;16.18;55.59;100903.09;4459335;32;33606;-81
2023/10/05 07:12:46;;;;;;;1.37;1.27;;;;;;;16.27;55.73;100891.09;4480527;32;33613;-80
2023/10/05 07:15:18;;;;;;;1.37;1.27;;;;;;;16.26;56.05;100892.91;4462166;32;34073;-81
2023/10/05 07:17:50;;;;;;;0.30;0.30;;;;;;;16.17;55.64;100892.50;4463209;32;33093;-80
2023/10/05 07:20:22;;;;;;;0.03;0.03;;;;;;;16.72;54.52;100889.75;4461296;32;33610;-80
2023/10/05 07:22:50;;;;;;;;;;;;;;;17.15;53.77;100896.34;4445558;32;32985;-81
2023/10/05 07:25:18;;;;;;;20.48;1.23;;;;;;;17.29;53.17;100892.94;4462041;32;34121;-80
2023/10/05 07:27:47;;;;;;;3.97;1.10;;;;;;;17.32;53.02;100893.63;4477613;32;33544;-80
2023/10/05 07:30:16;;;;;;;3.85;0.43;;;;;;;17.56;53.32;100894.09;4450736;32;33137;-80
2023/10/05 07:32:44;;;;;;;0.03;0.03;;;;;;;17.66;53.16;100887.31;4460103;32;33930;-80
2023/10/05 07:35:26;;;;;;;0.20;0.20;;;;;;;17.71;53.26;100889.72;4477954;32;34515;-79
2023/10/05 07:37:54;;;;;;;0.93;0.82;;;;;;;17.95;53.26;100884.84;4460967;32;32948;-79
2023/10/05 07:40:22;;;;;;;2.35;1.15;;;;;;;18.03;52.58;100885.25;4477269;32;33554;-80
2023/10/05 07:42:51;;;;;;;0.45;0.45;;;;;;;18.11;51.86;100885.66;4457795;32;33472;-79
2023/10/05 07:45:18;;;;;;;9.18;0.80;;;;;;;18.33;51.20;100876.41;4472809;32;33966;-79
2023/10/05 07:47:46;;;;;;;3.42;0.98;;;;;;;18.58;49.07;100876.66;4470073;32;33235;-80
2023/10/05 07:50:15;;;;;;;0.03;0.03;;;;;;;18.34;49.48;100872.78;4479831;32;34347;-80
2023/10/05 07:52:48;;;;;;;1.20;1.05;;;;;;;18.75;47.08;100878.34;4474890;32;33576;-81
2023/10/05 07:55:16;;;;;;;0.20;0.20;;;;;;;19.02;45.80;100869.59;4460540;32;34515;-80
2023/10/05 07:57:44;;;;;;;0.00;0.00;;;;;;;19.01;46.62;100882.13;4477458;32;33131;-80
2023/10/05 08:00:12;;;;;;;0.08;0.08;;;;;;;19.29;46.14;100881.25;4460981;32;34658;-80
2023/10/05 08:02:41;;;;;;;0.20;0.20;;;;;;;19.37;44.84;100886.12;4461988;32;34834;-80
2023/10/05 08:05:12;;;;;;;0.43;0.35;;;;;;;19.36;44.19;100892.44;4460958;32;34667;-80
2023/10/05 08:07:41;;;;;;;6.53;0.88;;;;;;;19.52;43.41;100884.31;4462891;32;33819;-80
2023/10/05 08:10:15;;;;;;;0.00;0.00;;;;;;;19.71;42.07;100894.75;4460039;32;33372;-80
2023/10/05 08:12:43;;;;;;;1.02;0.47;;;;;;;20.05;39.13;100883.53;4470258;32;34026;-80
2023/10/05 08:15:12;;;;;;;0.08;0.08;;;;;;;20.19;40.54;100886.16;4475850;32;34506;-80
2023/10/05 08:17:40;;;;;;;0.00;0.00;;;;;;;20.20;41.41;100887.87;4450093;32;31020;-80
2023/10/05 08:20:09;;;;;;;0.22;0.22;;;;;;;20.57;40.88;100885.44;4462170;32;33423;-80
2023/10/05 08:22:37;;;;;;;0.00;0.00;;;;;;;20.80;39.50;100883.00;4448727;32;33855;-81
2023/10/05 08:25:11;;;;;;;0.00;0.00;;;;;;;20.99;37.93;100879.91;4463762;32;33866;-80
2023/10/05 08:27:42;;;;;;;0.30;0.30;;;;;;;21.11;37.36;100874.50;4464892;32;33894;-80
2023/10/05 08:30:12;;;;;;;0.00;0.00;;;;;;;20.96;37.50;100872.91;4475790;32;33871;-80
2023/10/05 08:32:40;;;;;;;0.65;0.35;;;;;;;20.67;38.29;100874.94;4462378;32;34410;-80
2023/10/05 08:35:13;;;;;;;0.13;0.13;;;;;;;20.78;38.50;100874.19;4476542;32;33788;-80
2023/10/05 08:37:48;;;;;;;3.12;0.35;;;;;;;21.46;36.41;100872.03;4473837;32;33157;-79
2023/10/05 08:43:10;;;;;;;0.00;0.00;;;;;;;21.28;37.17;100872.47;4471087;32;34654;-80
2023/10/05 08:45:46;;;;;;;0.43;0.43;;;;;;;21.79;35.56;100864.28;4461101;32;33561;-80
2023/10/05 08:48:35;;;;;;;0.00;0.00;;;;;;;21.81;35.49;100862.38;4475932;32;34170;-80
2023/10/05 08:51:10;;;;;;;0.80;0.68;;;;;;;22.14;31.81;100865.25;4464378;32;33600;-80
2023/10/05 08:53:54;;;;;;;0.00;0.00;;;;;;;22.05;33.47;100865.91;4461174;32;33091;-79
2023/10/05 08:56:22;;;;;;;0.00;0.00;;;;;;;21.92;33.83;100870.47;4460096;32;32946;-80
2023/10/05 08:58:52;;;;;;;0.08;0.08;;;;;;;22.20;35.42;100870.16;4474631;32;33311;-80
2023/10/05 09:01:42;;;;;;;0.00;0.00;;;;;;;22.58;34.03;100862.84;4462896;32;33086;-80
2023/10/05 09:04:11;;;;;;;0.00;0.00;;;;;;;22.74;34.14;100861.56;4461842;32;33913;-80
2023/10/05 09:06:47;;;;;;;0.47;0.47;;;;;;;22.56;35.61;100860.28;4476183;32;32849;-80
2023/10/05 09:09:18;;;;;;;0.13;0.13;;;;;;;23.02;34.92;100854.00;4475026;32;33642;-80
2023/10/05 09:11:46;;;;;;;0.00;0.00;;;;;;;23.15;33.57;100860.16;4458458;32;34125;-80
2023/10/05 09:14:23;;;;;;;0.62;0.32;;;;;;;22.94;36.35;100853.78;4447391;32;34092;-80
2023/10/05 09:16:57;;;;;;;1.02;0.68;;;;;;;23.06;35.01;100842.03;4472218;32;33776;-80
2023/10/05 09:19:29;;;;;;;0.00;0.00;;;;;;;23.13;34.70;100843.25;4460651;32;32248;-80
2023/10/05 09:24:30;;;;;;;1.62;0.77;;;;;;;23.09;32.39;100836.41;4475190;32;34035;-80
2023/10/05 09:27:13;;;;;;;0.40;0.40;;;;;;;23.45;32.63;100837.97;4475296;32;33840;-80
2023/10/05 09:29:42;;;;;;;1.12;0.40;;;;;;;23.36;32.53;100840.53;4464376;32;33435;-80
2023/10/05 09:32:36;;;;;;;1.25;0.47;;;;;;;23.50;30.41;100840.31;4462787;32;33923;-80
2023/10/05 09:35:09;;;;;;;0.00;0.00;;;;;;;23.72;31.32;100829.47;4463677;32;33676;-80
2023/10/05 09:37:39;;;;;;;0.52;0.47;;;;;;;23.77;30.09;100824.56;4474300;32;33699;-80
2023/10/05 09:40:15;;;;;;;0.45;0.40;;;;;;;23.67;30.29;100826.31;4454631;32;32296;-80
2023/10/05 09:42:44;;;;;;;0.08;0.08;;;;;;;24.10;28.58;100821.88;4470529;32;33623;-80
2023/10/05 09:45:13;;;;;;;0.10;0.10;;;;;;;24.39;27.86;100822.12;4462586;32;33016;-80
2023/10/05 09:47:41;;;;;;;0.10;0.10;;;;;;;24.48;27.75;100824.06;4476212;32;35211;-80
2023/10/05 09:50:10;;;;;;;0.03;0.03;;;;;;;24.21;28.86;100819.13;4463091;32;33220;-80
2023/10/05 09:52:43;;;;;;;0.00;0.00;;;;;;;24.33;28.30;100812.69;4464063;32;33775;-80
2023/10/05 09:55:13;;;;;;;0.35;0.30;;;;;;;23.48;29.32;100831.47;4475634;32;33656;-80
2023/10/05 09:57:41;;;;;;;1.95;0.10;;;;;;;23.62;30.73;100823.09;4462908;32;34557;-80
2023/10/05 10:00:47;;;;;;;0.20;0.20;;;;;;;23.88;29.62;100817.41;4451530;32;33837;-80
2023/10/05 10:03:03;;;;;;;0.28;0.10;;;;;;;24.43;29.44;100812.78;4464496;32;32786;-80
2023/10/05 10:05:37;;;;;;;0.25;0.25;;;;;;;24.13;29.47;100806.31;4477099;32;33891;-80
2023/10/05 10:08:13;;;;;;;0.00;0.00;;;;;;;24.53;29.44;100805.59;4462113;32;35366;-80
2023/10/05 10:10:51;;;;;;;1.87;0.80;;;;;;;24.67;27.99;100804.41;4469405;32;32537;-80
2023/10/05 10:13:22;;;;;;;2.00;0.10;;;;;;;24.71;29.02;100789.66;4463685;32;32954;-80
2023/10/05 10:15:53;;;;;;;3.25;1.02;;;;;;;24.47;28.77;100792.66;4476919;32;33976;-80
2023/10/05 10:18:34;;;;;;;0.32;0.32;;;;;;;25.03;28.75;100797.66;4463682;32;34546;-80
2023/10/05 10:21:08;;;;;;;0.60;0.57;;;;;;;24.92;28.79;100786.91;4462869;32;32830;-80
2023/10/05 10:23:36;;;;;;;0.68;0.20;;;;;;;25.05;29.74;100782.13;4463510;32;32749;-80
2023/10/05 10:26:17;;;;;;;0.75;0.62;;;;;;;25.09;28.90;100771.94;4478085;32;33101;-80
2023/10/05 10:31:42;;;;;;;0.00;0.00;;;;;;;25.20;28.27;100761.03;4475595;32;33426;-80
2023/10/05 10:34:19;;;;;;;1.27;0.82;;;;;;;25.00;29.03;100768.19;4473345;32;34326;-80
2023/10/05 10:36:52;;;;;;;3.30;1.25;;;;;;;25.00;29.78;100762.78;4476923;32;33546;-80
2023/10/05 10:39:27;;;;;;;2.50;0.30;;;;;;;24.68;28.65;100765.63;4451673;32;33290;-80
2023/10/05 10:42:18;;;;;;;0.62;0.62;;;;;;;24.75;28.76;100766.81;4462593;32;34038;-80
2023/10/05 10:45:11;;;;;;;0.17;0.17;;;;;;;24.91;28.80;100758.19;4477338;32;33600;-80
2023/10/05 10:47:39;;;;;;;0.10;0.10;;;;;;;24.85;28.99;100753.34;4465042;32;34179;-80
2023/10/05 10:50:23;;;;;;;0.00;0.00;;;;;;;25.26;28.78;100736.16;4450286;32;33191;-80
2023/10/05 10:52:51;;;;;;;1.40;0.53;;;;;;;25.48;27.60;100737.75;4477358;32;32585;-80
2023/10/05 10:55:30;;;;;;;0.85;0.47;;;;;;;24.88;28.20;100736.88;4460600;32;32721;-80
2023/10/05 10:58:04;;;;;;;0.55;0.50;;;;;;;24.72;29.73;100732.81;4450800;32;32826;-80
2023/10/05 11:03:15;;;;;;;0.90;0.55;;;;;;;25.59;28.18;100726.81;4475830;32;34328;-81
2023/10/05 11:05:51;;;;;;;1.15;0.82;;;;;;;25.49;27.65;100723.22;4463371;32;33892;-80
2023/10/05 11:08:22;;;;;;;0.10;0.10;;;;;;;26.04;26.69;100713.56;4463676;32;33064;-80
2023/10/05 11:11:15;;;;;;;0.25;0.25;;;;;;;25.64;27.62;100718.28;4464295;32;33395;-81
2023/10/05 11:13:54;;;;;;;0.90;0.60;;;;;;;25.60;28.13;100706.88;4462790;32;33769;-80
2023/10/05 11:16:42;;;;;;;0.30;0.00;;;;;;;25.88;27.21;100701.66;4461599;32;33139;-80
2023/10/05 11:19:13;;;;;;;0.20;0.20;;;;;;;25.98;27.84;100699.78;4463730;32;33619;-80
2023/10/05 11:22:04;;;;;;;0.30;0.30;;;;;;;25.95;27.24;100697.34;4463919;32;33956;-80
2023/10/05 11:24:40;;;;;;;0.32;0.28;;;;;;;26.09;27.01;100691.50;4451339;32;33661;-80
2023/10/05 11:27:15;;;;;;;0.40;0.25;;;;;;;26.50;27.53;100684.00;4476040;32;34797;-80
2023/10/05 11:29:55;;;;;;;0.00;0.00;;;;;;;26.26;27.54;100684.50;4458489;32;33871;-81
2023/10/05 11:32:43;;;;;;;0.40;0.40;;;;;;;26.50;28.34;100681.31;4473512;32;34248;-80
2023/10/05 11:35:40;;;;;;;0.28;0.28;;;;;;;26.89;26.69;100673.84;4460051;32;33182;-80
2023/10/05 11:38:15;;;;;;;0.22;0.20;;;;;;;26.33;27.10;100672.06;4472067;32;34383;-80
2023/10/05 11:40:49;;;;;;;0.03;0.03;;;;;;;26.30;26.98;100666.91;4472554;32;32962;-81
2023/10/05 11:43:18;;;;;;;0.00;0.00;;;;;;;26.38;27.23;100660.78;4470504;32;32158;-81
2023/10/05 11:45:55;;;;;;;2.58;0.80;;;;;;;26.46;26.96;100660.94;4471386;32;33113;-81
2023/10/05 11:49:14;;;;;;;0.13;0.03;;;;;;;26.68;27.17;100657.84;4473562;31;33097;-80
2023/10/05 11:51:42;;;;;;;0.20;0.15;;;;;;;27.20;26.81;100647.25;4470791;32;33690;-80
2023/10/05 11:54:15;;;;;;;0.15;0.15;;;;;;;27.34;25.81;100650.44;4461400;32;33714;-80
2023/10/05 11:56:43;;;;;;;2.03;0.43;;;;;;;27.15;25.50;100651.44;4459540;32;32082;-80
2023/10/05 11:59:11;;;;;;;0.52;0.52;;;;;;;26.75;26.61;100645.38;4461497;32;32883;-80
2023/10/05 12:01:43;;;;;;;0.10;0.10;;;;;;;26.43;26.72;100639.56;4462562;32;33882;-80
2023/10/05 12:04:13;;;;;;;0.00;0.00;;;;;;;26.17;28.27;100648.31;4473767;32;32769;-80
2023/10/05 12:06:41;;;;;;;0.30;0.30;;;;;;;26.09;28.30;100642.78;4460991;32;32621;-80
2023/10/05 12:09:09;;;;;;;0.20;0.17;;;;;;;26.24;28.56;100640.44;4473483;32;34090;-79
2023/10/05 12:11:38;;;;;;;2.47;0.60;;;;;;;26.79;26.98;100640.53;4450671;32;32997;-80
2023/10/05 12:14:06;;;;;;;0.10;0.10;;;;;;;26.71;27.03;100635.00;4475584;32;33518;-81
2023/10/05 12:16:34;;;;;;;0.47;0.32;;;;;;;26.42;28.08;100638.66;4445867;32;33117;-80
2023/10/05 12:19:16;;;;;;;0.30;0.30;;;;;;;26.47;27.29;100635.53;4459547;32;31824;-81